createdAt,value
2022-08-06T00:00:03.024Z,13.10
2022-08-06T00:02:28.357Z,13.10
2022-08-06T00:04:58.128Z,13.00
2022-08-06T00:07:28.144Z,13.00
2022-08-06T00:09:59.989Z,13.00
2022-08-06T00:12:32.440Z,13.00
2022-08-06T00:15:01.467Z,13.00
2022-08-06T00:17:39.934Z,13.00
2022-08-06T00:20:07.778Z,12.90
2022-08-06T00:22:37.738Z,12.90
2022-08-06T00:25:05.566Z,12.90
2022-08-06T00:27:38.684Z,12.90
2022-08-06T00:30:09.947Z,12.90
2022-08-06T00:32:46.326Z,12.90
2022-08-06T00:35:18.700Z,12.90
2022-08-06T00:37:57.258Z,12.90
2022-08-06T00:40:29.162Z,12.80
2022-08-06T00:43:05.982Z,12.80
2022-08-06T00:45:37.736Z,12.80
2022-08-06T00:48:07.197Z,12.80
2022-08-06T00:50:35.694Z,12.80
2022-08-06T00:53:05.383Z,12.80
2022-08-06T00:55:36.429Z,12.80
2022-08-06T00:58:05.629Z,12.80
2022-08-06T01:00:38.428Z,12.80
2022-08-06T01:03:05.826Z,12.80
2022-08-06T01:06:04.169Z,12.80
2022-08-06T01:08:19.601Z,12.70
2022-08-06T01:10:46.475Z,12.70
2022-08-06T01:13:25.577Z,12.80
2022-08-06T01:16:45.355Z,12.70
2022-08-06T01:21:20.086Z,12.70
2022-08-06T01:22:52.073Z,12.70
2022-08-06T01:25:48.574Z,12.60
2022-08-06T01:28:28.572Z,12.60
2022-08-06T01:31:22.129Z,12.60
2022-08-06T01:34:00.130Z,12.50
2022-08-06T01:36:48.360Z,12.50
2022-08-06T01:39:22.812Z,12.50
2022-08-06T01:42:01.722Z,12.40
2022-08-06T01:44:45.162Z,12.40
2022-08-06T01:47:18.174Z,12.40
2022-08-06T01:50:01.789Z,12.40
2022-08-06T01:52:43.253Z,12.40
2022-08-06T01:55:42.503Z,12.40
2022-08-06T01:58:27.348Z,12.40
2022-08-06T02:01:01.251Z,12.30
2022-08-06T02:03:59.378Z,12.40
2022-08-06T02:06:33.803Z,12.30
2022-08-06T02:09:16.448Z,12.30
2022-08-06T02:12:21.773Z,12.30
2022-08-06T02:14:55.196Z,12.30
2022-08-06T02:18:04.432Z,12.30
2022-08-06T02:20:18.906Z,12.30
2022-08-06T02:23:04.455Z,12.30
2022-08-06T02:25:34.539Z,12.30
2022-08-06T02:28:05.592Z,12.30
2022-08-06T02:30:42.860Z,12.30
2022-08-06T02:33:10.970Z,12.30
2022-08-06T02:35:44.390Z,12.30
2022-08-06T02:38:18.142Z,12.30
2022-08-06T02:41:05.984Z,12.30
2022-08-06T02:43:37.716Z,12.20
2022-08-06T02:46:28.250Z,12.20
2022-08-06T02:49:00.695Z,12.20
2022-08-06T02:52:10.254Z,12.20
2022-08-06T02:54:46.830Z,12.20
2022-08-06T02:57:16.641Z,12.20
2022-08-06T02:59:53.623Z,12.10
2022-08-06T03:02:26.217Z,12.10
2022-08-06T03:04:57.446Z,12.00
2022-08-06T03:07:31.087Z,12.00
2022-08-06T03:09:59.923Z,12.00
2022-08-06T03:12:30.500Z,12.00
2022-08-06T03:15:06.010Z,11.90
2022-08-06T03:17:40.664Z,11.90
2022-08-06T03:20:16.720Z,11.90
2022-08-06T03:22:46.898Z,11.90
2022-08-06T03:25:15.953Z,11.90
2022-08-06T03:27:45.383Z,11.90
2022-08-06T03:30:31.827Z,11.80
2022-08-06T03:33:07.801Z,11.80
2022-08-06T03:35:54.403Z,11.80
2022-08-06T03:38:28.070Z,11.80
2022-08-06T03:40:57.017Z,11.70
2022-08-06T03:43:27.615Z,11.70
2022-08-06T03:46:00.766Z,11.70
2022-08-06T03:48:35.939Z,11.70
2022-08-06T03:51:10.938Z,11.70
2022-08-06T03:53:44.861Z,11.70
2022-08-06T03:56:22.327Z,11.60
2022-08-06T03:59:00.312Z,11.60
2022-08-06T04:01:31.771Z,11.60
2022-08-06T04:04:02.075Z,11.60
2022-08-06T04:06:52.074Z,11.60
2022-08-06T04:09:33.608Z,11.60
2022-08-06T04:12:35.295Z,11.60
2022-08-06T04:14:55.313Z,11.70
2022-08-06T04:17:24.212Z,11.70
2022-08-06T04:19:52.623Z,11.60
2022-08-06T04:23:05.988Z,11.70
2022-08-06T04:25:10.823Z,11.70
2022-08-06T04:27:53.883Z,11.70
2022-08-06T04:30:25.394Z,11.70
2022-08-06T04:33:00.903Z,11.80
2022-08-06T04:36:08.036Z,11.80
2022-08-06T04:38:28.017Z,11.80
2022-08-06T04:41:03.488Z,11.80
2022-08-06T04:43:38.074Z,11.90
2022-08-06T04:46:16.464Z,11.90
2022-08-06T04:48:46.859Z,11.90
2022-08-06T04:51:17.146Z,11.90
2022-08-06T04:54:01.118Z,12.00
2022-08-06T04:56:33.279Z,12.10
2022-08-06T04:59:05.380Z,12.10
2022-08-06T05:01:40.478Z,12.20
2022-08-06T05:04:22.587Z,12.30
2022-08-06T05:07:04.124Z,12.40
2022-08-06T05:09:42.664Z,12.60
2022-08-06T05:12:39.528Z,12.70
2022-08-06T05:15:21.423Z,12.90
2022-08-06T05:18:33.335Z,12.90
2022-08-06T05:21:06.371Z,13.10
2022-08-06T05:23:39.833Z,13.30
2022-08-06T05:26:11.029Z,13.40
2022-08-06T05:28:51.461Z,13.50
2022-08-06T05:31:38.641Z,13.60
2022-08-06T05:34:06.788Z,13.80
2022-08-06T05:36:33.612Z,13.90
2022-08-06T05:39:00.592Z,14.20
2022-08-06T05:41:33.556Z,14.40
2022-08-06T05:44:05.136Z,14.60
2022-08-06T05:46:41.149Z,14.70
2022-08-06T05:49:55.483Z,14.90
2022-08-06T05:52:18.427Z,15.10
2022-08-06T05:54:56.261Z,15.50
2022-08-06T05:57:41.361Z,15.90
2022-08-06T06:00:42.459Z,16.10
2022-08-06T06:03:02.716Z,16.40
2022-08-06T06:06:06.787Z,16.50
2022-08-06T06:08:37.623Z,16.50
2022-08-06T06:11:09.965Z,16.80
2022-08-06T06:13:59.492Z,16.90
2022-08-06T06:16:59.243Z,17.00
2022-08-06T06:19:41.594Z,17.30
2022-08-06T06:23:03.017Z,17.50
2022-08-06T06:25:35.300Z,17.70
2022-08-06T06:28:40.849Z,17.80
2022-08-06T06:31:13.976Z,18.10
2022-08-06T06:34:20.381Z,18.20
2022-08-06T06:37:02.779Z,18.70
2022-08-06T06:39:39.480Z,19.10
2022-08-06T06:42:11.913Z,19.40
2022-08-06T06:46:06.511Z,19.50
2022-08-06T06:48:21.389Z,20.00
2022-08-06T06:50:55.077Z,20.20
2022-08-06T06:53:26.065Z,20.00
2022-08-06T06:56:17.192Z,20.00
2022-08-06T06:59:13.006Z,19.70
2022-08-06T07:01:50.889Z,19.40
2022-08-06T07:04:22.690Z,19.50
2022-08-06T07:06:57.624Z,19.40
2022-08-06T07:09:41.055Z,19.30
2022-08-06T07:12:19.881Z,19.20
2022-08-06T07:14:53.331Z,19.20
2022-08-06T07:17:45.891Z,19.10
2022-08-06T07:20:17.269Z,19.20
2022-08-06T07:24:06.197Z,19.10
2022-08-06T07:25:39.982Z,19.20
2022-08-06T07:28:10.711Z,19.10
2022-08-06T07:30:41.620Z,19.10
2022-08-06T07:33:11.319Z,19.00
2022-08-06T07:35:45.650Z,19.10
2022-08-06T07:38:18.070Z,19.10
2022-08-06T07:40:53.002Z,19.10
2022-08-06T07:43:51.699Z,19.10
2022-08-06T07:46:23.577Z,19.00
2022-08-06T07:49:04.683Z,19.10
2022-08-06T07:51:40.565Z,19.20
2022-08-06T07:54:12.149Z,19.10
2022-08-06T07:57:00.539Z,19.00
2022-08-06T07:59:29.773Z,19.30
2022-08-06T08:01:58.814Z,19.20
2022-08-06T08:04:52.013Z,19.60
2022-08-06T08:07:37.261Z,19.70
2022-08-06T08:10:12.853Z,20.00
2022-08-06T08:12:44.968Z,20.20
2022-08-06T08:15:19.208Z,19.90
2022-08-06T08:17:57.770Z,19.70
2022-08-06T08:20:33.987Z,19.60
2022-08-06T08:23:04.022Z,19.50
2022-08-06T08:25:40.212Z,19.70
2022-08-06T08:28:11.051Z,20.00
2022-08-06T08:30:40.715Z,20.30
2022-08-06T08:33:15.425Z,20.40
2022-08-06T08:35:48.875Z,20.60
2022-08-06T08:38:22.045Z,20.60
2022-08-06T08:40:55.834Z,20.60
2022-08-06T08:43:58.670Z,20.90
2022-08-06T08:46:31.131Z,21.10
2022-08-06T08:49:04.652Z,21.10
2022-08-06T08:51:36.610Z,20.50
2022-08-06T08:54:16.422Z,20.30
2022-08-06T08:57:05.902Z,20.30
2022-08-06T08:59:57.453Z,20.20
2022-08-06T09:02:24.575Z,20.10
2022-08-06T09:04:52.856Z,19.70
2022-08-06T09:07:36.004Z,19.60
2022-08-06T09:10:05.799Z,19.80
2022-08-06T09:12:45.441Z,20.20
2022-08-06T09:15:17.165Z,20.50
2022-08-06T09:18:12.540Z,21.00
2022-08-06T09:20:35.995Z,21.00
2022-08-06T09:23:07.474Z,21.00
2022-08-06T09:25:50.154Z,20.90
2022-08-06T09:28:33.357Z,20.70
2022-08-06T09:31:05.624Z,20.70
2022-08-06T09:34:30.591Z,20.70
2022-08-06T09:36:42.686Z,20.60
2022-08-06T09:39:13.333Z,20.80
2022-08-06T09:41:53.845Z,20.70
2022-08-06T09:44:37.367Z,20.90
2022-08-06T09:47:16.303Z,20.90
2022-08-06T09:50:00.436Z,21.00
2022-08-06T09:52:28.267Z,21.20
2022-08-06T09:54:55.196Z,21.20
2022-08-06T09:57:36.048Z,20.80
2022-08-06T10:00:14.742Z,20.80
2022-08-06T10:02:50.782Z,20.80
2022-08-06T10:05:19.512Z,21.10
2022-08-06T10:07:52.610Z,21.10
2022-08-06T10:10:40.802Z,21.10
2022-08-06T10:13:14.314Z,21.00
2022-08-06T10:15:57.986Z,21.00
2022-08-06T10:18:55.663Z,21.00
2022-08-06T10:21:26.673Z,21.10
2022-08-06T10:24:00.834Z,21.10
2022-08-06T10:26:33.552Z,21.20
2022-08-06T10:29:06.056Z,21.50
2022-08-06T10:31:37.834Z,21.70
2022-08-06T10:34:17.350Z,21.80
2022-08-06T10:36:55.389Z,21.80
2022-08-06T10:40:07.805Z,22.10
2022-08-06T10:42:22.758Z,21.80
2022-08-06T10:44:54.224Z,21.60
2022-08-06T10:48:57.837Z,21.50
2022-08-06T10:50:32.924Z,21.10
2022-08-06T10:52:59.568Z,20.90
2022-08-06T10:55:37.845Z,20.90
2022-08-06T10:58:12.987Z,20.60
2022-08-06T11:00:45.073Z,20.60
2022-08-06T11:03:34.454Z,20.60
2022-08-06T11:06:35.800Z,20.40
2022-08-06T11:10:01.703Z,20.40
2022-08-06T11:12:51.043Z,20.50
2022-08-06T11:15:22.289Z,20.50
2022-08-06T11:17:55.935Z,20.30
2022-08-06T11:20:44.322Z,20.10
2022-08-06T11:23:26.430Z,19.80
2022-08-06T11:26:05.024Z,19.90
2022-08-06T11:28:31.975Z,20.10
2022-08-06T11:31:03.050Z,20.10
2022-08-06T11:33:38.743Z,20.10
2022-08-06T11:36:25.809Z,20.40
2022-08-06T11:38:59.142Z,20.50
2022-08-06T11:41:50.204Z,20.50
2022-08-06T11:44:25.268Z,20.50
2022-08-06T11:47:11.943Z,20.30
2022-08-06T11:49:46.977Z,20.30
2022-08-06T11:52:34.376Z,20.20
2022-08-06T11:55:12.977Z,20.10
2022-08-06T11:57:52.479Z,20.00
2022-08-06T12:00:23.525Z,19.90
2022-08-06T12:02:56.727Z,19.90
2022-08-06T12:05:25.367Z,19.90
2022-08-06T12:08:14.805Z,19.90
2022-08-06T12:11:36.268Z,20.00
2022-08-06T12:14:32.698Z,20.20
2022-08-06T12:16:53.670Z,20.40
2022-08-06T12:19:24.462Z,20.70
2022-08-06T12:21:57.181Z,20.80
2022-08-06T12:24:39.934Z,20.90
2022-08-06T12:27:18.969Z,21.20
2022-08-06T12:29:59.399Z,21.60
2022-08-06T12:32:27.579Z,21.80
2022-08-06T12:35:00.235Z,21.70
2022-08-06T12:37:51.253Z,21.60
2022-08-06T12:40:36.714Z,21.30
2022-08-06T12:43:14.669Z,21.10
2022-08-06T12:46:06.144Z,21.00
2022-08-06T12:48:32.049Z,21.00
2022-08-06T12:51:14.298Z,21.00
2022-08-06T12:53:47.253Z,20.90
2022-08-06T12:56:31.822Z,20.80
2022-08-06T12:59:02.658Z,20.70
2022-08-06T13:02:09.980Z,20.50
2022-08-06T13:04:21.030Z,20.50
2022-08-06T13:06:49.558Z,20.70
2022-08-06T13:09:20.204Z,20.60
2022-08-06T13:11:51.679Z,20.60
2022-08-06T13:14:20.376Z,20.70
2022-08-06T13:16:57.331Z,20.90
2022-08-06T13:19:32.524Z,20.80
2022-08-06T13:22:03.240Z,21.00
2022-08-06T13:24:35.207Z,21.00
2022-08-06T13:27:05.955Z,21.00
2022-08-06T13:30:34.113Z,21.00
2022-08-06T13:32:33.320Z,21.00
2022-08-06T13:35:11.343Z,21.00
2022-08-06T13:38:06.436Z,21.00
2022-08-06T13:40:57.341Z,21.00
2022-08-06T13:43:55.332Z,21.00
2022-08-06T13:46:27.855Z,21.00
2022-08-06T13:49:02.160Z,21.10
2022-08-06T13:51:35.544Z,21.20
2022-08-06T13:54:16.452Z,21.30
2022-08-06T13:56:48.670Z,21.40
2022-08-06T13:59:17.544Z,21.40
2022-08-06T14:01:47.093Z,21.40
2022-08-06T14:04:18.390Z,21.50
2022-08-06T14:06:46.955Z,21.40
2022-08-06T14:09:19.970Z,21.20
2022-08-06T14:11:55.931Z,21.20
2022-08-06T14:14:25.299Z,21.10
2022-08-06T14:16:58.958Z,21.10
2022-08-06T14:20:15.647Z,21.10
2022-08-06T14:22:14.052Z,21.20
2022-08-06T14:24:40.889Z,21.30
2022-08-06T14:27:20.339Z,21.30
2022-08-06T14:30:27.874Z,21.40
2022-08-06T14:32:38.857Z,21.40
2022-08-06T14:35:07.858Z,21.30
2022-08-06T14:37:50.675Z,21.30
2022-08-06T14:41:02.682Z,21.20
2022-08-06T14:43:55.209Z,21.10
2022-08-06T14:46:25.934Z,21.10
2022-08-06T14:48:57.590Z,21.10
2022-08-06T14:51:37.332Z,21.00
2022-08-06T14:54:14.259Z,21.00
2022-08-06T14:56:45.455Z,20.90
2022-08-06T14:59:19.730Z,20.90
2022-08-06T15:01:47.150Z,20.80
2022-08-06T15:04:23.854Z,21.00
2022-08-06T15:06:57.246Z,21.00
2022-08-06T15:10:03.497Z,21.00
2022-08-06T15:12:21.530Z,21.00
2022-08-06T15:15:00.964Z,20.90
2022-08-06T15:17:50.338Z,20.90
2022-08-06T15:20:16.971Z,21.00
2022-08-06T15:22:51.979Z,21.00
2022-08-06T15:25:21.916Z,20.90
2022-08-06T15:28:06.221Z,20.90
2022-08-06T15:30:33.924Z,20.90
2022-08-06T15:33:02.100Z,20.80
2022-08-06T15:35:43.655Z,20.80
2022-08-06T15:38:22.662Z,20.90
2022-08-06T15:40:49.880Z,21.00
2022-08-06T15:43:16.745Z,21.20
2022-08-06T15:45:55.336Z,21.30
2022-08-06T15:48:29.153Z,21.30
2022-08-06T15:51:28.328Z,21.10
2022-08-06T15:53:54.828Z,21.00
2022-08-06T15:56:33.926Z,20.90
2022-08-06T15:59:11.794Z,20.70
2022-08-06T16:01:52.368Z,20.50
2022-08-06T16:04:30.746Z,20.50
2022-08-06T16:06:59.258Z,20.50
2022-08-06T16:09:27.791Z,20.50
2022-08-06T16:11:57.171Z,20.60
2022-08-06T16:14:33.420Z,20.60
2022-08-06T16:17:09.844Z,20.50
2022-08-06T16:19:49.147Z,20.50
2022-08-06T16:22:18.199Z,20.50
2022-08-06T16:24:45.256Z,20.40
2022-08-06T16:27:14.831Z,20.40
2022-08-06T16:29:47.483Z,20.40
2022-08-06T16:32:21.373Z,20.30
2022-08-06T16:34:57.349Z,20.20
2022-08-06T16:37:32.812Z,20.20
2022-08-06T16:40:01.544Z,20.20
2022-08-06T16:42:32.142Z,20.10
2022-08-06T16:45:02.722Z,20.10
2022-08-06T16:48:22.164Z,20.10
2022-08-06T16:50:26.787Z,20.10
2022-08-06T16:54:11.745Z,20.10
2022-08-06T16:56:00.123Z,20.00
2022-08-06T16:58:33.385Z,20.00
2022-08-06T17:06:42.097Z,19.90
2022-08-06T17:09:16.115Z,19.90
2022-08-06T17:11:45.798Z,19.90
2022-08-06T17:14:21.020Z,19.80
2022-08-06T17:16:48.163Z,19.80
2022-08-06T17:22:03.120Z,19.80
2022-08-06T17:24:32.743Z,19.70
2022-08-06T17:27:10.296Z,19.70
2022-08-06T17:32:36.774Z,19.70
2022-08-06T17:35:15.908Z,19.60
2022-08-06T17:37:49.272Z,19.60
2022-08-06T17:40:31.672Z,19.60
2022-08-06T17:42:30.231Z,20.00
2022-08-06T17:43:13.099Z,19.50
2022-08-06T17:46:00.428Z,19.50
2022-08-06T17:48:38.868Z,19.50
2022-08-06T17:51:09.587Z,19.40
2022-08-06T17:53:53.409Z,19.40
2022-08-06T17:56:29.764Z,19.30
2022-08-06T17:59:17.762Z,19.30
2022-08-06T18:01:49.363Z,19.20
2022-08-06T18:04:22.207Z,19.20
2022-08-06T18:06:58.044Z,19.10
2022-08-06T18:10:08.591Z,19.10
2022-08-06T18:12:13.166Z,19.00
2022-08-06T18:14:41.174Z,18.90
2022-08-06T18:17:17.095Z,18.90
2022-08-06T18:19:55.547Z,18.80
2022-08-06T18:22:25.163Z,18.70
2022-08-06T18:24:54.694Z,18.70
2022-08-06T18:27:54.285Z,18.60
2022-08-06T18:30:36.151Z,18.60
2022-08-06T18:33:08.388Z,18.50
2022-08-06T18:35:55.401Z,18.40
2022-08-06T18:38:32.018Z,18.40
2022-08-06T18:41:14.537Z,18.20
2022-08-06T18:43:55.049Z,18.10
2022-08-06T18:46:55.829Z,18.00
2022-08-06T18:49:26.908Z,18.00
2022-08-06T18:52:04.531Z,17.90
2022-08-06T18:54:56.835Z,17.80
2022-08-06T18:57:37.875Z,17.70
2022-08-06T19:00:18.052Z,17.60
2022-08-06T19:02:48.872Z,17.50
2022-08-06T19:05:16.856Z,17.40
2022-08-06T19:07:53.833Z,17.30
2022-08-06T19:10:24.389Z,17.30
2022-08-06T19:12:55.491Z,17.20
2022-08-06T19:15:24.730Z,17.10
2022-08-06T19:18:17.063Z,17.00
2022-08-06T19:20:45.370Z,17.00
2022-08-06T19:23:12.542Z,16.90
2022-08-06T19:25:52.184Z,16.80
2022-08-06T19:28:35.718Z,16.80
2022-08-06T19:31:13.218Z,16.80
2022-08-06T19:33:51.228Z,16.70
2022-08-06T19:36:31.272Z,16.70
2022-08-06T19:38:59.354Z,16.60
2022-08-06T19:41:55.837Z,16.50
2022-08-06T19:44:27.529Z,16.50
2022-08-06T19:47:00.893Z,16.40
2022-08-06T19:49:27.935Z,16.30
2022-08-06T19:52:08.710Z,16.30
2022-08-06T19:54:36.173Z,16.20
2022-08-06T19:57:08.411Z,16.10
2022-08-06T20:00:51.077Z,16.10
2022-08-06T20:02:28.798Z,16.00
2022-08-06T20:04:57.903Z,16.00
2022-08-06T20:07:28.138Z,16.00
2022-08-06T20:10:01.195Z,15.90
2022-08-06T20:12:32.344Z,15.90
2022-08-06T20:15:13.347Z,16.00
2022-08-06T20:17:48.761Z,16.00
2022-08-06T20:20:28.168Z,16.00
2022-08-06T20:22:56.487Z,15.90
2022-08-06T20:25:24.029Z,16.00
2022-08-06T20:29:10.725Z,16.00
2022-08-06T20:30:50.638Z,15.90
2022-08-06T20:33:24.467Z,15.90
2022-08-06T20:35:58.099Z,15.80
2022-08-06T20:38:39.880Z,15.80
2022-08-06T20:41:58.883Z,15.70
2022-08-06T20:44:06.473Z,15.70
2022-08-06T20:47:01.800Z,15.50
2022-08-06T20:49:29.617Z,15.50
2022-08-06T20:52:18.091Z,15.40
2022-08-06T20:54:51.899Z,15.30
2022-08-06T20:57:26.422Z,15.30
2022-08-06T20:59:56.860Z,15.30
2022-08-06T21:02:26.107Z,15.20
2022-08-06T21:05:14.925Z,15.20
2022-08-06T21:07:57.875Z,15.10
2022-08-06T21:10:31.300Z,15.00
2022-08-06T21:13:01.879Z,14.90
2022-08-06T21:15:42.561Z,14.90
2022-08-06T21:18:20.666Z,14.80
2022-08-06T21:20:50.747Z,14.80
2022-08-06T21:23:18.246Z,14.70
2022-08-06T21:25:48.366Z,14.60
2022-08-06T21:28:19.607Z,14.60
2022-08-06T21:30:53.586Z,14.50
2022-08-06T21:33:22.677Z,14.50
2022-08-06T21:35:51.044Z,14.40
2022-08-06T21:38:24.177Z,14.30
2022-08-06T21:40:52.817Z,14.30
2022-08-06T21:43:22.144Z,14.20
2022-08-06T21:45:50.506Z,14.20
2022-08-06T21:48:31.300Z,14.20
2022-08-06T21:50:59.717Z,14.10
2022-08-06T21:53:49.300Z,14.10
2022-08-06T21:56:38.633Z,14.00
2022-08-06T21:59:01.924Z,14.00
2022-08-06T22:02:09.979Z,14.00
2022-08-06T22:04:39.235Z,13.90
2022-08-06T22:07:02.932Z,13.90
2022-08-06T22:09:38.074Z,13.80
2022-08-06T22:12:40.459Z,13.80
2022-08-06T22:14:58.792Z,13.80
2022-08-06T22:17:59.721Z,13.70
2022-08-06T22:20:21.556Z,13.70
2022-08-06T22:22:52.579Z,13.60
2022-08-06T22:25:22.382Z,13.50
2022-08-06T22:27:55.372Z,13.50
2022-08-06T22:30:42.546Z,13.50
2022-08-06T22:33:17.169Z,13.40
2022-08-06T22:35:57.442Z,13.40
2022-08-06T22:38:25.967Z,13.40
2022-08-06T22:40:53.374Z,13.40
2022-08-06T22:43:29.891Z,13.40
2022-08-06T22:46:10.404Z,13.30
2022-08-06T22:48:37.622Z,13.30
2022-08-06T22:51:10.798Z,13.30
2022-08-06T22:54:25.944Z,13.30
2022-08-06T22:56:30.092Z,13.30
2022-08-06T22:59:18.837Z,13.20
2022-08-06T23:02:07.266Z,13.20
2022-08-06T23:04:37.065Z,13.10
2022-08-06T23:07:09.551Z,13.10
2022-08-06T23:09:40.238Z,13.00
2022-08-06T23:12:11.195Z,13.00
2022-08-06T23:14:40.099Z,13.00
2022-08-06T23:17:09.362Z,13.00
2022-08-06T23:19:57.355Z,13.00
2022-08-06T23:22:24.505Z,13.00
2022-08-06T23:25:03.706Z,12.90
2022-08-06T23:27:46.445Z,12.80
2022-08-06T23:30:19.670Z,12.90
2022-08-06T23:32:48.891Z,12.80
2022-08-06T23:35:36.646Z,12.80
2022-08-06T23:38:34.238Z,12.70
2022-08-06T23:40:54.948Z,12.70
2022-08-06T23:43:22.965Z,12.60
2022-08-06T23:45:50.544Z,12.60
2022-08-06T23:48:17.594Z,12.50
2022-08-06T23:50:52.664Z,12.50
2022-08-06T23:54:06.924Z,12.50
2022-08-06T23:56:11.018Z,12.40
2022-08-06T23:58:48.788Z,12.40
